createdAt,value
2023-05-25T00:00:25.797Z,79.25
2023-05-25T00:05:27.724Z,79.08
2023-05-25T00:10:29.403Z,78.91
2023-05-25T00:15:30.899Z,79.21
2023-05-25T00:20:33.267Z,78.84
2023-05-25T00:25:34.830Z,78.43
2023-05-25T00:30:36.353Z,78.03
2023-05-25T00:35:37.973Z,79.28
2023-05-25T00:40:41.286Z,80.01
2023-05-25T00:45:42.989Z,79.68
2023-05-25T00:50:45.842Z,78.91
2023-05-25T00:55:59.808Z,78.87
2023-05-25T01:01:03.788Z,78.84
2023-05-25T01:06:11.875Z,79.13
2023-05-25T01:11:15.030Z,78.86
2023-05-25T01:16:17.102Z,78.96
2023-05-25T01:21:38.057Z,79.06
2023-05-25T01:26:44.390Z,79.58
2023-05-25T01:31:47.820Z,79.46
2023-05-25T01:36:49.704Z,79.63
2023-05-25T01:41:51.158Z,79.85
2023-05-25T01:47:05.599Z,80.07
2023-05-25T01:52:26.756Z,80.23
2023-05-25T01:57:29.777Z,80.41
2023-05-25T02:02:33.573Z,80.22
2023-05-25T02:07:36.397Z,80.77
2023-05-25T02:12:37.993Z,80.71
2023-05-25T02:17:39.469Z,81.03
2023-05-25T02:22:40.993Z,80.84
2023-05-25T02:27:43.160Z,80.88
2023-05-25T02:32:44.859Z,81.09
2023-05-25T02:37:48.463Z,80.60
2023-05-25T02:42:51.822Z,80.88
2023-05-25T02:47:53.306Z,81.12
2023-05-25T02:52:55.015Z,81.45
2023-05-25T02:57:56.985Z,81.14
2023-05-25T03:02:58.534Z,81.54
2023-05-25T03:08:00.008Z,81.62
2023-05-25T03:13:01.473Z,82.02
2023-05-25T03:18:03.028Z,81.84
2023-05-25T03:23:04.709Z,82.14
2023-05-25T03:28:06.298Z,82.26
2023-05-25T03:33:07.879Z,81.42
2023-05-25T03:38:09.416Z,81.25
2023-05-25T03:43:10.865Z,80.89
2023-05-25T03:48:12.372Z,81.05
2023-05-25T03:53:13.834Z,80.81
2023-05-25T03:58:16.088Z,80.54
2023-05-25T04:03:17.697Z,79.46
2023-05-25T04:08:22.466Z,79.79
2023-05-25T04:13:24.038Z,79.63
2023-05-25T04:18:25.689Z,79.42
2023-05-25T04:23:27.791Z,79.75
2023-05-25T04:28:29.407Z,79.95
2023-05-25T04:33:30.932Z,80.69
2023-05-25T04:38:33.325Z,80.49
2023-05-25T04:43:34.851Z,79.91
2023-05-25T04:48:39.096Z,80.82
2023-05-25T04:53:40.707Z,80.97
2023-05-25T04:58:42.271Z,80.51
2023-05-25T05:03:43.761Z,80.79
2023-05-25T05:08:45.224Z,80.45
2023-05-25T05:13:46.740Z,80.46
2023-05-25T05:18:48.496Z,79.96
2023-05-25T05:23:50.046Z,79.74
2023-05-25T05:28:52.636Z,79.64
2023-05-25T05:33:54.196Z,79.51
2023-05-25T05:38:55.905Z,79.23
2023-05-25T05:43:57.360Z,78.96
2023-05-25T05:48:58.832Z,78.84
2023-05-25T05:54:00.368Z,77.87
2023-05-25T05:59:01.866Z,78.77
2023-05-25T06:04:08.111Z,78.52
2023-05-25T06:09:09.657Z,78.74
2023-05-25T06:14:11.362Z,78.38
2023-05-25T06:19:14.422Z,78.01
2023-05-25T06:24:16.276Z,78.07
2023-05-25T06:29:17.764Z,77.54
2023-05-25T06:34:19.324Z,77.12
2023-05-25T06:39:20.784Z,77.57
2023-05-25T06:44:22.239Z,76.96
2023-05-25T06:49:23.687Z,78.16
2023-05-25T06:54:25.126Z,77.63
2023-05-25T06:59:26.682Z,77.10
2023-05-25T07:04:28.638Z,76.74
2023-05-25T07:09:30.196Z,76.57
2023-05-25T07:14:31.668Z,76.53
2023-05-25T07:19:33.203Z,76.75
2023-05-25T07:24:34.675Z,77.25
2023-05-25T07:29:36.203Z,76.41
2023-05-25T07:34:37.780Z,76.35
2023-05-25T07:39:40.546Z,75.78
2023-05-25T07:44:42.020Z,76.36
2023-05-25T07:49:43.477Z,75.79
2023-05-25T07:54:45.668Z,76.14
2023-05-25T07:59:47.245Z,75.54
2023-05-25T08:04:48.752Z,75.83
2023-05-25T08:09:50.328Z,75.13
2023-05-25T08:14:51.889Z,75.44
2023-05-25T08:19:54.823Z,75.61
2023-05-25T08:24:56.362Z,74.60
2023-05-25T08:29:57.803Z,74.88
2023-05-25T08:34:59.247Z,74.71
2023-05-25T08:40:02.553Z,74.18
2023-05-25T08:45:04.463Z,73.47
2023-05-25T08:50:08.764Z,73.97
2023-05-25T08:55:11.082Z,74.24
2023-05-25T09:00:15.687Z,73.71
2023-05-25T09:05:17.893Z,71.16
2023-05-25T09:10:19.481Z,72.58
2023-05-25T09:15:21.219Z,72.41
2023-05-25T09:20:23.929Z,71.80
2023-05-25T09:25:27.609Z,70.25
2023-05-25T09:30:32.840Z,70.54
2023-05-25T09:35:35.384Z,70.75
2023-05-25T09:40:38.197Z,70.42
2023-05-25T09:45:39.744Z,70.20
2023-05-25T09:50:41.270Z,70.32
2023-05-25T09:55:53.300Z,69.87
2023-05-25T10:00:56.074Z,68.23
2023-05-25T10:05:57.745Z,67.43
2023-05-25T10:10:59.706Z,67.10
2023-05-25T10:16:02.201Z,66.11
2023-05-25T10:21:05.262Z,64.97
2023-05-25T10:26:09.228Z,60.94
2023-05-25T10:31:12.242Z,61.47
2023-05-25T10:36:14.911Z,63.35
2023-05-25T10:41:17.792Z,62.25
2023-05-25T10:46:19.483Z,62.35
2023-05-25T10:51:21.760Z,61.10
2023-05-25T10:56:23.283Z,60.46
2023-05-25T11:01:25.527Z,59.96
2023-05-25T11:06:44.256Z,60.17
2023-05-25T11:11:50.159Z,59.16
2023-05-25T11:17:15.261Z,59.34
2023-05-25T11:22:30.669Z,59.72
2023-05-25T11:27:32.522Z,59.17
2023-05-25T11:32:34.166Z,59.00
2023-05-25T11:37:36.173Z,58.45
2023-05-25T11:42:38.374Z,58.75
2023-05-25T11:47:39.944Z,59.31
2023-05-25T11:52:41.580Z,58.76
2023-05-25T11:57:43.267Z,59.04
2023-05-25T12:02:44.818Z,57.80
2023-05-25T12:07:46.982Z,59.15
2023-05-25T12:12:51.802Z,58.97
2023-05-25T12:17:54.174Z,56.91
2023-05-25T12:22:56.104Z,58.07
2023-05-25T12:28:11.438Z,58.37
2023-05-25T12:33:14.197Z,58.43
2023-05-25T12:38:18.918Z,57.86
2023-05-25T12:43:20.523Z,58.44
2023-05-25T12:48:32.117Z,57.95
2023-05-25T12:53:49.763Z,58.30
2023-05-25T12:58:51.349Z,58.04
2023-05-25T13:03:54.224Z,58.46
2023-05-25T13:08:55.687Z,58.43
2023-05-25T13:13:57.158Z,58.22
2023-05-25T13:18:58.697Z,57.89
2023-05-25T13:24:00.186Z,57.63
2023-05-25T13:29:01.780Z,57.16
2023-05-25T13:34:03.624Z,56.46
2023-05-25T13:39:05.381Z,57.26
2023-05-25T13:44:06.928Z,56.65
2023-05-25T13:49:08.393Z,56.92
2023-05-25T13:54:09.848Z,56.52
2023-05-25T13:59:11.416Z,57.76
2023-05-25T14:04:15.707Z,57.00
2023-05-25T14:09:17.397Z,56.79
2023-05-25T14:14:30.054Z,57.55
2023-05-25T14:19:32.954Z,57.02
2023-05-25T14:24:34.469Z,57.66
2023-05-25T14:29:36.185Z,58.09
2023-05-25T14:34:37.714Z,57.82
2023-05-25T14:39:39.192Z,56.40
2023-05-25T14:44:40.703Z,56.03
2023-05-25T14:49:42.617Z,56.02
2023-05-25T14:54:44.956Z,56.98
2023-05-25T14:59:46.562Z,56.96
2023-05-25T15:04:48.087Z,57.47
2023-05-25T15:09:49.615Z,58.04
2023-05-25T15:14:51.117Z,58.25
2023-05-25T15:19:52.636Z,58.19
2023-05-25T15:24:54.158Z,56.89
2023-05-25T15:29:55.679Z,57.61
2023-05-25T15:34:57.137Z,58.42
2023-05-25T15:39:58.641Z,58.44
2023-05-25T15:45:00.148Z,58.81
2023-05-25T15:50:01.688Z,58.92
2023-05-25T15:55:03.452Z,58.25
2023-05-25T16:00:05.677Z,58.41
2023-05-25T16:05:07.635Z,58.07
2023-05-25T16:10:09.602Z,57.38
2023-05-25T16:15:11.115Z,58.28
2023-05-25T16:20:12.758Z,58.44
2023-05-25T16:25:14.249Z,58.07
2023-05-25T16:30:15.804Z,58.23
2023-05-25T16:35:17.331Z,58.80
2023-05-25T16:40:18.792Z,58.65
2023-05-25T16:45:23.210Z,58.57
2023-05-25T16:50:24.712Z,58.74
2023-05-25T16:55:26.304Z,58.31
2023-05-25T17:00:27.823Z,58.69
2023-05-25T17:05:29.407Z,58.88
2023-05-25T17:10:30.873Z,59.13
2023-05-25T17:15:32.375Z,58.79
2023-05-25T17:20:33.870Z,58.76
2023-05-25T17:25:35.349Z,58.99
2023-05-25T17:30:36.912Z,59.08
2023-05-25T17:35:38.370Z,59.45
2023-05-25T17:40:39.827Z,60.14
2023-05-25T17:45:41.459Z,61.02
2023-05-25T17:50:43.148Z,61.55
2023-05-25T17:55:44.824Z,61.87
2023-05-25T18:00:46.609Z,62.28
2023-05-25T18:05:48.096Z,62.53
2023-05-25T18:10:50.589Z,62.27
2023-05-25T18:15:52.143Z,62.61
2023-05-25T18:20:53.586Z,63.00
2023-05-25T18:25:55.174Z,63.49
2023-05-25T18:30:56.668Z,64.10
2023-05-25T18:35:58.167Z,64.89
2023-05-25T18:40:59.759Z,65.39
2023-05-25T18:46:01.278Z,65.91
2023-05-25T18:51:03.214Z,66.46
2023-05-25T18:56:04.891Z,67.13
2023-05-25T19:01:06.376Z,67.90
2023-05-25T19:06:07.825Z,68.48
2023-05-25T19:11:09.313Z,69.12
2023-05-25T19:16:10.956Z,69.59
2023-05-25T19:21:12.480Z,70.24
2023-05-25T19:26:14.028Z,70.96
2023-05-25T19:31:15.574Z,71.49
2023-05-25T19:36:17.109Z,71.94
2023-05-25T19:41:18.754Z,72.27
2023-05-25T19:46:20.279Z,72.83
2023-05-25T19:51:21.801Z,73.34
2023-05-25T19:56:23.257Z,73.71
2023-05-25T20:01:24.920Z,74.20
2023-05-25T20:06:26.396Z,74.61
2023-05-25T20:11:28.335Z,75.08
2023-05-25T20:16:29.819Z,75.31
2023-05-25T20:21:31.311Z,75.62
2023-05-25T20:26:33.980Z,75.92
2023-05-25T20:31:35.634Z,76.24
2023-05-25T20:36:37.296Z,76.69
2023-05-25T20:41:38.755Z,76.87
2023-05-25T20:46:40.523Z,77.06
2023-05-25T20:51:44.470Z,77.33
2023-05-25T20:56:47.808Z,77.71
2023-05-25T21:01:49.358Z,77.78
2023-05-25T21:06:50.887Z,78.31
2023-05-25T21:11:52.338Z,78.88
2023-05-25T21:16:53.799Z,79.34
2023-05-25T21:21:55.331Z,79.37
2023-05-25T21:26:56.788Z,79.71
2023-05-25T21:31:59.626Z,80.02
2023-05-25T21:37:01.094Z,80.16
2023-05-25T21:42:03.429Z,80.40
2023-05-25T21:47:05.141Z,80.33
2023-05-25T21:52:06.719Z,80.25
2023-05-25T21:57:08.164Z,79.96
2023-05-25T22:02:09.652Z,80.00
2023-05-25T22:07:11.121Z,79.73
2023-05-25T22:12:12.917Z,79.53
2023-05-25T22:17:15.904Z,79.35
2023-05-25T22:22:17.378Z,79.57
2023-05-25T22:27:18.853Z,79.31
2023-05-25T22:32:20.366Z,79.40
2023-05-25T22:37:21.812Z,79.21
2023-05-25T22:42:23.339Z,79.22
2023-05-25T22:47:24.931Z,79.39
2023-05-25T22:52:26.552Z,79.85
2023-05-25T22:57:28.039Z,80.03
2023-05-25T23:02:29.648Z,80.39
2023-05-25T23:07:31.433Z,80.54
2023-05-25T23:12:32.916Z,80.81
2023-05-25T23:17:34.447Z,80.72
2023-05-25T23:22:36.272Z,80.74
2023-05-25T23:27:38.022Z,81.16
2023-05-25T23:32:39.596Z,81.28
2023-05-25T23:37:41.126Z,81.44
2023-05-25T23:42:44.204Z,81.51
2023-05-25T23:47:45.675Z,81.70
2023-05-25T23:52:47.349Z,81.93
2023-05-25T23:57:48.809Z,82.19
